Buoy 46930

sailwx.info

Track history (hours):
 
Tides and Currents Weather Stations Pressure Air Temp Water Temp Dewpoint Dewpoint Depression Visibility Wind Speed Wind Dir Waves Ship Positions

Drifting buoy 46930

Last reported at 2016-Sep-26 06:00 UTC. Time now 2016-Sep-26 08:45 UTC.
Position N 21°41' W 170°32'.

Date/timePositionNaut miles runAvg speedWind from/ knotsBaromVisibWave heightAir tempDewpointWater temp
2016-Sep-26 06:00N 21°41' W 170°32'0 0.2
2016-Sep-26 05:00N 21°41' W 170°32'1 0.6
2016-Sep-26 04:00N 21°41' W 170°31'0 0.2
2016-Sep-26 03:00N 21°41' W 170°31'5 0.6
2016-Sep-25 19:00N 21°42' W 170°26'1 0.6
2016-Sep-25 18:00N 21°43' W 170°26'0 0.4
2016-Sep-25 17:00N 21°43' W 170°25'0 0.2
2016-Sep-25 16:00N 21°43' W 170°26'5 0.5
2016-Sep-25 05:00N 21°45' W 170°20'1 0.2
2016-Sep-25 01:00N 21°46' W 170°20'2 1.0
2016-Sep-24 23:00N 21°46' W 170°17'3 0.4
2016-Sep-24 16:00N 21°47' W 170°15'2 0.3
2016-Sep-24 07:00N 21°47' W 170°12'1 0.4
2016-Sep-24 05:00N 21°47' W 170°11'0 0.3
2016-Sep-24 04:00N 21°47' W 170°11'2 0.6
2016-Sep-24 01:00N 21°47' W 170°09'4 0.5
2016-Sep-23 18:00N 21°49' W 170°06'1 0.6
2016-Sep-23 16:00N 21°49' W 170°04'4 0.4
2016-Sep-23 07:00N 21°50' W 170°01'2 0.8
2016-Sep-23 05:00N 21°49' W 169°60'5 1.4
2016-Sep-23 01:00N 21°46' W 169°55'4 0.6
2016-Sep-22 18:00N 21°46' W 169°50'0 0.2
2016-Sep-22 16:00N 21°46' W 169°50'1 1.2
2016-Sep-22 15:00N 21°46' W 169°48'0 0.0
2016-Sep-22 14:00N 21°46' W 169°48'3 0.4
2016-Sep-22 07:00N 21°46' W 169°46'1 0.6
2016-Sep-22 06:00N 21°45' W 169°45'1 0.6
2016-Sep-22 05:00N 21°45' W 169°45'0 0.5
2016-Sep-22 04:00N 21°45' W 169°45'1 1.0
2016-Sep-22 03:00N 21°44' W 169°44'0 0.3
2016-Sep-22 02:00N 21°44' W 169°44'7 0.8
2016-Sep-21 17:00N 21°40' W 169°39'5 0.6
2016-Sep-21 09:00N 21°40' W 169°33'2 0.9
2016-Sep-21 07:00N 21°39' W 169°31'2 0.6
2016-Sep-21 04:00N 21°38' W 169°30'6 0.6
2016-Sep-20 19:00N 21°38' W 169°24'0 0.1
2016-Sep-20 17:00N 21°38' W 169°24'1 1.3
2016-Sep-20 16:00N 21°36' W 169°24'12 1.4
2016-Sep-20 07:00N 21°31' W 169°12'1 0.7
2016-Sep-20 06:00N 21°31' W 169°11'1 0.7
2016-Sep-20 04:00N 21°31' W 169°10'1 0.5
2016-Sep-20 02:00N 21°32' W 169°09'1 0.7
2016-Sep-20 00:00N 21°32' W 169°08'4 0.6
2016-Sep-19 17:00N 21°32' W 169°03'1 0.6
2016-Sep-19 16:00N 21°32' W 169°03'7 0.8
2016-Sep-19 08:00N 21°28' W 168°57'2 1.1
2016-Sep-19 06:00N 21°27' W 168°55'1 1.2
2016-Sep-19 05:00N 21°27' W 168°53'5 1.6
2016-Sep-19 02:00N 21°26' W 168°48'10 1.0
2016-Sep-18 16:00N 21°25' W 168°37'0 0.2
2016-Sep-18 15:00N 21°25' W 168°38'5 0.9
2016-Sep-18 09:00N 21°27' W 168°32'4 0.9
2016-Sep-18 05:00N 21°26' W 168°28'2 1.0
2016-Sep-18 03:00N 21°26' W 168°26'10 1.0
2016-Sep-17 17:00N 21°28' W 168°15'10 1.0
2016-Sep-17 07:00N 21°30' W 168°05'1 1.4
2016-Sep-17 06:00N 21°31' W 168°03'1 0.7
2016-Sep-17 04:00N 21°31' W 168°02'0 0.0
2016-Sep-17 03:00N 21°31' W 168°02'8 1.0
2016-Sep-16 19:00N 21°36' W 167°55'1 0.5
2016-Sep-16 17:00N 21°36' W 167°54'0 0.0
2016-Sep-16 16:00N 21°36' W 167°54'4 4.2
2016-Sep-16 15:00N 21°35' W 167°49'7 0.9
2016-Sep-16 07:00N 21°40' W 167°43'  
Track history (hours):
 
Tides and Currents Weather Stations Pressure Air Temp Water Temp Dewpoint Dewpoint Depression Visibility Wind Speed Wind Dir Waves Ship Positions

Drifting buoy 46930

Last reported at 2016-Sep-26 06:00 UTC. Time now 2016-Sep-26 08:45 UTC.
Position N 21°41' W 170°32'.

Date/timePositionNaut miles runAvg speedWind from/ knotsBaromVisibWave heightAir tempDewpointWater temp
2016-Sep-26 06:00N 21°41' W 170°32'0 0.2
2016-Sep-26 05:00N 21°41' W 170°32'1 0.6
2016-Sep-26 04:00N 21°41' W 170°31'0 0.2
2016-Sep-26 03:00N 21°41' W 170°31'5 0.6
2016-Sep-25 19:00N 21°42' W 170°26'1 0.6
2016-Sep-25 18:00N 21°43' W 170°26'0 0.4
2016-Sep-25 17:00N 21°43' W 170°25'0 0.2
2016-Sep-25 16:00N 21°43' W 170°26'5 0.5
2016-Sep-25 05:00N 21°45' W 170°20'1 0.2
2016-Sep-25 01:00N 21°46' W 170°20'2 1.0
2016-Sep-24 23:00N 21°46' W 170°17'3 0.4
2016-Sep-24 16:00N 21°47' W 170°15'2 0.3
2016-Sep-24 07:00N 21°47' W 170°12'1 0.4
2016-Sep-24 05:00N 21°47' W 170°11'0 0.3
2016-Sep-24 04:00N 21°47' W 170°11'2 0.6
2016-Sep-24 01:00N 21°47' W 170°09'4 0.5
2016-Sep-23 18:00N 21°49' W 170°06'1 0.6
2016-Sep-23 16:00N 21°49' W 170°04'4 0.4
2016-Sep-23 07:00N 21°50' W 170°01'2 0.8
2016-Sep-23 05:00N 21°49' W 169°60'5 1.4
2016-Sep-23 01:00N 21°46' W 169°55'4 0.6
2016-Sep-22 18:00N 21°46' W 169°50'0 0.2
2016-Sep-22 16:00N 21°46' W 169°50'1 1.2
2016-Sep-22 15:00N 21°46' W 169°48'0 0.0
2016-Sep-22 14:00N 21°46' W 169°48'3 0.4
2016-Sep-22 07:00N 21°46' W 169°46'1 0.6
2016-Sep-22 06:00N 21°45' W 169°45'1 0.6
2016-Sep-22 05:00N 21°45' W 169°45'0 0.5
2016-Sep-22 04:00N 21°45' W 169°45'1 1.0
2016-Sep-22 03:00N 21°44' W 169°44'0 0.3
2016-Sep-22 02:00N 21°44' W 169°44'7 0.8
2016-Sep-21 17:00N 21°40' W 169°39'5 0.6
2016-Sep-21 09:00N 21°40' W 169°33'2 0.9
2016-Sep-21 07:00N 21°39' W 169°31'2 0.6
2016-Sep-21 04:00N 21°38' W 169°30'6 0.6
2016-Sep-20 19:00N 21°38' W 169°24'0 0.1
2016-Sep-20 17:00N 21°38' W 169°24'1 1.3
2016-Sep-20 16:00N 21°36' W 169°24'12 1.4
2016-Sep-20 07:00N 21°31' W 169°12'1 0.7
2016-Sep-20 06:00N 21°31' W 169°11'1 0.7
2016-Sep-20 04:00N 21°31' W 169°10'1 0.5
2016-Sep-20 02:00N 21°32' W 169°09'1 0.7
2016-Sep-20 00:00N 21°32' W 169°08'4 0.6
2016-Sep-19 17:00N 21°32' W 169°03'1 0.6
2016-Sep-19 16:00N 21°32' W 169°03'7 0.8
2016-Sep-19 08:00N 21°28' W 168°57'2 1.1
2016-Sep-19 06:00N 21°27' W 168°55'1 1.2
2016-Sep-19 05:00N 21°27' W 168°53'5 1.6
2016-Sep-19 02:00N 21°26' W 168°48'10 1.0
2016-Sep-18 16:00N 21°25' W 168°37'0 0.2
2016-Sep-18 15:00N 21°25' W 168°38'5 0.9
2016-Sep-18 09:00N 21°27' W 168°32'4 0.9
2016-Sep-18 05:00N 21°26' W 168°28'2 1.0
2016-Sep-18 03:00N 21°26' W 168°26'10 1.0
2016-Sep-17 17:00N 21°28' W 168°15'10 1.0
2016-Sep-17 07:00N 21°30' W 168°05'1 1.4
2016-Sep-17 06:00N 21°31' W 168°03'1 0.7
2016-Sep-17 04:00N 21°31' W 168°02'0 0.0
2016-Sep-17 03:00N 21°31' W 168°02'8 1.0
2016-Sep-16 19:00N 21°36' W 167°55'1 0.5
2016-Sep-16 17:00N 21°36' W 167°54'0 0.0
2016-Sep-16 16:00N 21°36' W 167°54'4 4.2
2016-Sep-16 15:00N 21°35' W 167°49'7 0.9
2016-Sep-16 07:00N 21°40' W 167°43'  

Dump ship's entire track history